sensor_id;sensor_type;location;lat;lon;timestamp;P1;durP1;ratioP1;P2;durP2;ratioP2
57321;SDS011;43159;51.006;18.224;2023-07-29T00:00:22;11.80;;;2.90;;
57321;SDS011;43159;51.006;18.224;2023-07-29T00:10:04;6.90;;;2.50;;
57321;SDS011;43159;51.006;18.224;2023-07-29T00:19:48;7.60;;;3.00;;
57321;SDS011;43159;51.006;18.224;2023-07-29T00:29:30;8.60;;;2.90;;
57321;SDS011;43159;51.006;18.224;2023-07-29T00:39:12;6.10;;;2.30;;
57321;SDS011;43159;51.006;18.224;2023-07-29T00:48:55;6.00;;;2.20;;
57321;SDS011;43159;51.006;18.224;2023-07-29T00:58:37;4.40;;;1.80;;
57321;SDS011;43159;51.006;18.224;2023-07-29T01:18:56;7.70;;;2.80;;
57321;SDS011;43159;51.006;18.224;2023-07-29T01:28:42;6.80;;;2.90;;
57321;SDS011;43159;51.006;18.224;2023-07-29T01:38:47;13.80;;;2.80;;
57321;SDS011;43159;51.006;18.224;2023-07-29T01:48:35;6.90;;;3.40;;
57321;SDS011;43159;51.006;18.224;2023-07-29T01:58:17;9.80;;;3.60;;
57321;SDS011;43159;51.006;18.224;2023-07-29T02:08:00;9.00;;;4.00;;
57321;SDS011;43159;51.006;18.224;2023-07-29T02:17:42;9.70;;;3.90;;
57321;SDS011;43159;51.006;18.224;2023-07-29T02:27:25;10.80;;;4.40;;
57321;SDS011;43159;51.006;18.224;2023-07-29T02:37:10;8.10;;;3.10;;
57321;SDS011;43159;51.006;18.224;2023-07-29T02:46:52;9.50;;;4.30;;
57321;SDS011;43159;51.006;18.224;2023-07-29T02:56:37;8.90;;;3.50;;
57321;SDS011;43159;51.006;18.224;2023-07-29T03:06:21;11.40;;;4.30;;
57321;SDS011;43159;51.006;18.224;2023-07-29T03:16:08;9.70;;;4.50;;
57321;SDS011;43159;51.006;18.224;2023-07-29T03:25:51;11.20;;;5.00;;
57321;SDS011;43159;51.006;18.224;2023-07-29T03:35:38;10.40;;;4.70;;
57321;SDS011;43159;51.006;18.224;2023-07-29T03:45:20;9.60;;;4.10;;
57321;SDS011;43159;51.006;18.224;2023-07-29T03:55:02;8.80;;;4.00;;
57321;SDS011;43159;51.006;18.224;2023-07-29T04:04:46;9.50;;;4.70;;
57321;SDS011;43159;51.006;18.224;2023-07-29T04:14:30;13.40;;;4.60;;
57321;SDS011;43159;51.006;18.224;2023-07-29T04:24:12;9.80;;;4.60;;
57321;SDS011;43159;51.006;18.224;2023-07-29T04:33:55;11.00;;;4.30;;
57321;SDS011;43159;51.006;18.224;2023-07-29T04:43:37;7.20;;;2.50;;
57321;SDS011;43159;51.006;18.224;2023-07-29T04:53:22;7.40;;;3.50;;
57321;SDS011;43159;51.006;18.224;2023-07-29T05:03:04;15.20;;;4.60;;
57321;SDS011;43159;51.006;18.224;2023-07-29T05:12:45;7.00;;;3.20;;
57321;SDS011;43159;51.006;18.224;2023-07-29T05:22:28;10.40;;;3.90;;
57321;SDS011;43159;51.006;18.224;2023-07-29T05:32:09;8.00;;;3.20;;
57321;SDS011;43159;51.006;18.224;2023-07-29T05:41:52;9.80;;;2.80;;
57321;SDS011;43159;51.006;18.224;2023-07-29T05:51:34;6.90;;;2.80;;
57321;SDS011;43159;51.006;18.224;2023-07-29T06:01:15;6.00;;;2.10;;
57321;SDS011;43159;51.006;18.224;2023-07-29T06:11:00;6.20;;;2.00;;
57321;SDS011;43159;51.006;18.224;2023-07-29T06:20:42;15.10;;;2.30;;
57321;SDS011;43159;51.006;18.224;2023-07-29T06:30:24;5.10;;;1.80;;
57321;SDS011;43159;51.006;18.224;2023-07-29T06:40:06;7.80;;;1.90;;
57321;SDS011;43159;51.006;18.224;2023-07-29T06:49:49;5.70;;;2.10;;
57321;SDS011;43159;51.006;18.224;2023-07-29T06:59:31;7.60;;;1.90;;
57321;SDS011;43159;51.006;18.224;2023-07-29T07:09:13;5.80;;;1.70;;
57321;SDS011;43159;51.006;18.224;2023-07-29T07:18:56;4.60;;;1.90;;
57321;SDS011;43159;51.006;18.224;2023-07-29T07:28:42;4.00;;;1.50;;
57321;SDS011;43159;51.006;18.224;2023-07-29T07:38:24;9.40;;;2.20;;
57321;SDS011;43159;51.006;18.224;2023-07-29T07:48:11;5.00;;;1.80;;
57321;SDS011;43159;51.006;18.224;2023-07-29T07:57:54;4.30;;;1.70;;
57321;SDS011;43159;51.006;18.224;2023-07-29T08:07:37;4.90;;;1.70;;
57321;SDS011;43159;51.006;18.224;2023-07-29T08:17:19;6.40;;;2.00;;
57321;SDS011;43159;51.006;18.224;2023-07-29T08:27:01;3.80;;;1.40;;
57321;SDS011;43159;51.006;18.224;2023-07-29T08:36:43;5.20;;;2.10;;
57321;SDS011;43159;51.006;18.224;2023-07-29T08:46:50;3.50;;;1.40;;
57321;SDS011;43159;51.006;18.224;2023-07-29T08:56:43;5.70;;;2.30;;
57321;SDS011;43159;51.006;18.224;2023-07-29T09:06:26;3.20;;;1.50;;
57321;SDS011;43159;51.006;18.224;2023-07-29T09:16:11;6.50;;;1.80;;
57321;SDS011;43159;51.006;18.224;2023-07-29T09:26:03;3.60;;;1.80;;
57321;SDS011;43159;51.006;18.224;2023-07-29T09:35:50;0.20;;;0.20;;
57321;SDS011;43159;51.006;18.224;2023-07-29T09:45:35;4.60;;;1.50;;
57321;SDS011;43159;51.006;18.224;2023-07-29T09:55:21;4.10;;;1.60;;
57321;SDS011;43159;51.006;18.224;2023-07-29T10:05:26;11.80;;;2.00;;
57321;SDS011;43159;51.006;18.224;2023-07-29T10:15:09;6.50;;;1.90;;
57321;SDS011;43159;51.006;18.224;2023-07-29T10:24:53;3.50;;;1.50;;
57321;SDS011;43159;51.006;18.224;2023-07-29T10:34:36;2.20;;;1.30;;
57321;SDS011;43159;51.006;18.224;2023-07-29T10:54:43;6.90;;;1.50;;
57321;SDS011;43159;51.006;18.224;2023-07-29T11:04:46;5.40;;;1.50;;
57321;SDS011;43159;51.006;18.224;2023-07-29T11:15:02;4.90;;;1.80;;
57321;SDS011;43159;51.006;18.224;2023-07-29T11:24:46;5.30;;;1.90;;
57321;SDS011;43159;51.006;18.224;2023-07-29T11:34:32;0.70;;;0.70;;
57321;SDS011;43159;51.006;18.224;2023-07-29T11:44:17;4.20;;;1.80;;
57321;SDS011;43159;51.006;18.224;2023-07-29T11:54:01;3.50;;;1.70;;
57321;SDS011;43159;51.006;18.224;2023-07-29T12:03:44;5.50;;;1.60;;
57321;SDS011;43159;51.006;18.224;2023-07-29T12:13:27;1.90;;;1.40;;
57321;SDS011;43159;51.006;18.224;2023-07-29T12:23:09;4.50;;;1.90;;
57321;SDS011;43159;51.006;18.224;2023-07-29T12:32:58;5.10;;;1.80;;
57321;SDS011;43159;51.006;18.224;2023-07-29T12:42:51;5.10;;;1.80;;
57321;SDS011;43159;51.006;18.224;2023-07-29T12:52:34;7.70;;;2.30;;
57321;SDS011;43159;51.006;18.224;2023-07-29T13:02:17;3.40;;;1.30;;
57321;SDS011;43159;51.006;18.224;2023-07-29T13:11:59;4.30;;;1.80;;
57321;SDS011;43159;51.006;18.224;2023-07-29T13:21:46;4.30;;;1.40;;
57321;SDS011;43159;51.006;18.224;2023-07-29T13:31:29;8.20;;;2.40;;
57321;SDS011;43159;51.006;18.224;2023-07-29T13:41:13;5.80;;;1.80;;
57321;SDS011;43159;51.006;18.224;2023-07-29T13:50:55;4.50;;;1.60;;
57321;SDS011;43159;51.006;18.224;2023-07-29T14:00:37;4.50;;;1.70;;
57321;SDS011;43159;51.006;18.224;2023-07-29T14:10:19;3.70;;;1.70;;
57321;SDS011;43159;51.006;18.224;2023-07-29T14:20:01;7.90;;;2.00;;
57321;SDS011;43159;51.006;18.224;2023-07-29T14:29:44;5.40;;;1.70;;
57321;SDS011;43159;51.006;18.224;2023-07-29T14:39:26;1.50;;;0.90;;
57321;SDS011;43159;51.006;18.224;2023-07-29T14:49:08;4.80;;;1.80;;
57321;SDS011;43159;51.006;18.224;2023-07-29T14:58:51;7.90;;;1.90;;
57321;SDS011;43159;51.006;18.224;2023-07-29T15:08:33;5.60;;;2.10;;
57321;SDS011;43159;51.006;18.224;2023-07-29T15:18:16;7.90;;;2.70;;
57321;SDS011;43159;51.006;18.224;2023-07-29T15:27:58;3.80;;;1.40;;
57321;SDS011;43159;51.006;18.224;2023-07-29T15:37:40;5.80;;;2.00;;
57321;SDS011;43159;51.006;18.224;2023-07-29T15:47:23;9.90;;;2.40;;
57321;SDS011;43159;51.006;18.224;2023-07-29T15:57:07;8.80;;;2.70;;
57321;SDS011;43159;51.006;18.224;2023-07-29T16:06:49;5.90;;;1.90;;
57321;SDS011;43159;51.006;18.224;2023-07-29T16:16:32;9.00;;;2.70;;
57321;SDS011;43159;51.006;18.224;2023-07-29T16:26:20;5.90;;;2.00;;
57321;SDS011;43159;51.006;18.224;2023-07-29T16:36:06;8.80;;;2.30;;
57321;SDS011;43159;51.006;18.224;2023-07-29T16:45:48;7.30;;;2.00;;
57321;SDS011;43159;51.006;18.224;2023-07-29T16:55:30;14.30;;;2.70;;
57321;SDS011;43159;51.006;18.224;2023-07-29T17:05:12;8.60;;;2.10;;
57321;SDS011;43159;51.006;18.224;2023-07-29T17:14:54;1.10;;;0.90;;
57321;SDS011;43159;51.006;18.224;2023-07-29T17:24:38;11.80;;;1.40;;
57321;SDS011;43159;51.006;18.224;2023-07-29T17:34:20;2.00;;;0.80;;
57321;SDS011;43159;51.006;18.224;2023-07-29T17:44:03;3.00;;;1.20;;
57321;SDS011;43159;51.006;18.224;2023-07-29T17:53:46;4.50;;;1.40;;
57321;SDS011;43159;51.006;18.224;2023-07-29T18:03:29;2.80;;;1.20;;
57321;SDS011;43159;51.006;18.224;2023-07-29T18:13:11;3.00;;;1.00;;
57321;SDS011;43159;51.006;18.224;2023-07-29T18:22:54;5.30;;;1.50;;
57321;SDS011;43159;51.006;18.224;2023-07-29T18:32:40;5.60;;;1.50;;
57321;SDS011;43159;51.006;18.224;2023-07-29T18:42:27;8.30;;;1.50;;
57321;SDS011;43159;51.006;18.224;2023-07-29T18:52:09;4.50;;;1.50;;
57321;SDS011;43159;51.006;18.224;2023-07-29T19:01:53;5.40;;;1.80;;
57321;SDS011;43159;51.006;18.224;2023-07-29T19:11:35;3.80;;;1.30;;
57321;SDS011;43159;51.006;18.224;2023-07-29T19:21:21;7.30;;;1.80;;
57321;SDS011;43159;51.006;18.224;2023-07-29T19:31:04;6.80;;;1.70;;
57321;SDS011;43159;51.006;18.224;2023-07-29T19:40:47;3.40;;;1.70;;
57321;SDS011;43159;51.006;18.224;2023-07-29T19:50:36;1.00;;;0.80;;
57321;SDS011;43159;51.006;18.224;2023-07-29T20:00:18;5.00;;;1.40;;
57321;SDS011;43159;51.006;18.224;2023-07-29T20:10:00;2.20;;;1.20;;
57321;SDS011;43159;51.006;18.224;2023-07-29T20:19:42;4.90;;;1.40;;
57321;SDS011;43159;51.006;18.224;2023-07-29T20:29:27;6.00;;;1.80;;
57321;SDS011;43159;51.006;18.224;2023-07-29T20:39:08;5.20;;;1.60;;
57321;SDS011;43159;51.006;18.224;2023-07-29T20:48:51;5.30;;;1.40;;
57321;SDS011;43159;51.006;18.224;2023-07-29T20:58:39;7.60;;;1.80;;
57321;SDS011;43159;51.006;18.224;2023-07-29T21:08:47;3.60;;;1.50;;
57321;SDS011;43159;51.006;18.224;2023-07-29T21:18:29;4.30;;;1.50;;
57321;SDS011;43159;51.006;18.224;2023-07-29T21:28:16;5.70;;;1.50;;
57321;SDS011;43159;51.006;18.224;2023-07-29T21:37:59;10.90;;;3.20;;
57321;SDS011;43159;51.006;18.224;2023-07-29T21:47:41;4.80;;;1.60;;
57321;SDS011;43159;51.006;18.224;2023-07-29T21:57:25;4.30;;;1.70;;
57321;SDS011;43159;51.006;18.224;2023-07-29T22:07:08;3.50;;;1.40;;
57321;SDS011;43159;51.006;18.224;2023-07-29T22:16:50;2.00;;;1.00;;
57321;SDS011;43159;51.006;18.224;2023-07-29T22:26:32;3.50;;;1.30;;
57321;SDS011;43159;51.006;18.224;2023-07-29T22:36:15;12.60;;;1.90;;
57321;SDS011;43159;51.006;18.224;2023-07-29T22:45:59;9.00;;;2.10;;
57321;SDS011;43159;51.006;18.224;2023-07-29T22:55:44;4.50;;;1.80;;
57321;SDS011;43159;51.006;18.224;2023-07-29T23:05:28;8.50;;;2.80;;
57321;SDS011;43159;51.006;18.224;2023-07-29T23:15:11;4.80;;;1.90;;
57321;SDS011;43159;51.006;18.224;2023-07-29T23:24:54;13.50;;;2.30;;
57321;SDS011;43159;51.006;18.224;2023-07-29T23:34:36;6.10;;;1.80;;
57321;SDS011;43159;51.006;18.224;2023-07-29T23:44:19;4.50;;;1.70;;
57321;SDS011;43159;51.006;18.224;2023-07-29T23:54:00;7.20;;;1.70;;
